createdAt,value
2022-11-25T00:01:34.361Z,26.83
2022-11-25T00:04:01.981Z,27.20
2022-11-25T00:06:34.039Z,25.73
2022-11-25T00:09:11.295Z,28.30
2022-11-25T00:11:41.266Z,27.50
2022-11-25T00:14:13.731Z,26.03
2022-11-25T00:16:46.486Z,28.80
2022-11-25T00:19:15.628Z,27.90
2022-11-25T00:21:42.760Z,29.17
2022-11-25T00:24:11.947Z,27.87
2022-11-25T00:26:38.846Z,29.17
2022-11-25T00:29:08.308Z,29.43
2022-11-25T00:31:37.983Z,30.70
2022-11-25T00:34:05.661Z,29.53
2022-11-25T00:36:36.585Z,29.43
2022-11-25T00:39:16.742Z,28.93
2022-11-25T00:42:04.532Z,27.53
2022-11-25T00:44:41.578Z,28.53
2022-11-25T00:47:18.526Z,27.83
2022-11-25T00:49:52.001Z,28.63
2022-11-25T00:52:21.735Z,26.00
2022-11-25T00:54:50.002Z,28.77
2022-11-25T00:57:20.469Z,26.70
2022-11-25T00:59:47.580Z,29.73
2022-11-25T01:02:16.313Z,28.27
2022-11-25T01:04:43.369Z,28.70
2022-11-25T01:07:10.705Z,28.10
2022-11-25T01:09:37.794Z,27.87
2022-11-25T01:12:05.772Z,26.90
2022-11-25T01:14:32.974Z,26.30
2022-11-25T01:17:00.214Z,28.17
2022-11-25T01:19:27.252Z,28.70
2022-11-25T01:21:54.365Z,29.80
2022-11-25T01:24:23.940Z,27.93
2022-11-25T01:26:51.181Z,29.30
2022-11-25T01:29:19.460Z,28.30
2022-11-25T01:31:47.236Z,29.20
2022-11-25T01:34:22.939Z,28.60
2022-11-25T01:36:50.703Z,28.70
2022-11-25T01:39:30.455Z,27.77
2022-11-25T01:41:59.505Z,27.20
2022-11-25T01:44:32.246Z,29.03
2022-11-25T01:47:02.164Z,28.90
2022-11-25T01:49:47.379Z,28.97
2022-11-25T01:52:28.853Z,28.97
2022-11-25T01:55:02.024Z,28.17
2022-11-25T01:58:08.935Z,32.63
2022-11-25T02:00:37.741Z,30.50
2022-11-25T02:03:06.215Z,30.93
2022-11-25T02:05:50.450Z,29.60
2022-11-25T02:08:19.145Z,29.90
2022-11-25T02:10:46.589Z,29.63
2022-11-25T02:13:13.566Z,27.07
2022-11-25T02:15:40.562Z,28.53
2022-11-25T02:18:08.738Z,28.60
2022-11-25T02:20:35.694Z,30.60
2022-11-25T02:23:02.494Z,31.80
2022-11-25T02:25:37.077Z,28.97
2022-11-25T02:28:25.132Z,28.37
2022-11-25T02:30:53.416Z,31.77
2022-11-25T02:33:21.111Z,31.73
2022-11-25T02:36:12.567Z,27.80
2022-11-25T02:38:56.553Z,30.67
2022-11-25T02:41:32.225Z,30.80
2022-11-25T02:44:00.208Z,32.40
2022-11-25T02:46:28.929Z,29.37
2022-11-25T02:49:14.550Z,30.50
2022-11-25T02:51:44.928Z,30.87
2022-11-25T02:54:15.949Z,29.20
2022-11-25T02:56:43.269Z,28.43
2022-11-25T02:59:11.174Z,30.23
2022-11-25T03:01:38.534Z,31.17
2022-11-25T03:04:06.528Z,28.10
2022-11-25T03:06:33.603Z,29.73
2022-11-25T03:09:00.595Z,27.77
2022-11-25T03:11:46.367Z,28.73
2022-11-25T03:14:13.314Z,28.50
2022-11-25T03:16:40.354Z,26.40
2022-11-25T03:19:08.611Z,28.40
2022-11-25T03:21:35.758Z,30.87
2022-11-25T03:24:02.821Z,28.07
2022-11-25T03:26:29.829Z,26.57
2022-11-25T03:28:56.795Z,28.43
2022-11-25T03:31:23.835Z,25.97
2022-11-25T03:33:50.901Z,29.03
2022-11-25T03:36:17.873Z,28.37
2022-11-25T03:38:44.788Z,27.03
2022-11-25T03:41:11.691Z,27.27
2022-11-25T03:43:38.592Z,27.43
2022-11-25T03:46:05.777Z,28.03
2022-11-25T03:48:32.749Z,27.33
2022-11-25T03:50:59.693Z,25.50
2022-11-25T03:53:26.639Z,27.27
2022-11-25T03:55:53.583Z,28.47
2022-11-25T03:58:20.529Z,26.10
2022-11-25T04:00:47.465Z,26.77
2022-11-25T04:03:14.511Z,27.97
2022-11-25T04:05:42.051Z,26.83
2022-11-25T04:08:09.054Z,28.43
2022-11-25T04:10:36.030Z,27.43
2022-11-25T04:13:02.953Z,28.80
2022-11-25T04:15:29.930Z,26.60
2022-11-25T04:17:56.842Z,28.40
2022-11-25T04:20:23.757Z,27.53
2022-11-25T04:22:50.693Z,28.63
2022-11-25T04:25:17.703Z,28.03
2022-11-25T04:27:44.933Z,28.23
2022-11-25T04:30:12.658Z,27.87
2022-11-25T04:32:39.822Z,29.87
2022-11-25T04:35:07.307Z,26.37
2022-11-25T04:37:34.327Z,27.57
2022-11-25T04:40:01.261Z,28.20
2022-11-25T04:42:36.468Z,27.60
2022-11-25T04:45:33.412Z,29.53
2022-11-25T04:47:59.414Z,26.23
2022-11-25T04:50:26.500Z,27.37
2022-11-25T04:52:53.399Z,29.03
2022-11-25T04:55:20.401Z,27.40
2022-11-25T04:57:47.417Z,27.00
2022-11-25T05:00:14.871Z,29.17
2022-11-25T05:02:42.188Z,25.93
2022-11-25T05:05:09.379Z,27.47
2022-11-25T05:07:36.421Z,28.60
2022-11-25T05:10:03.732Z,28.60
2022-11-25T05:12:31.041Z,27.40
2022-11-25T05:14:58.131Z,27.77
2022-11-25T05:17:30.603Z,27.93
2022-11-25T05:19:57.598Z,27.63
2022-11-25T05:22:29.055Z,26.37
2022-11-25T05:24:56.768Z,28.13
2022-11-25T05:27:25.471Z,27.70
2022-11-25T05:29:55.984Z,26.03
2022-11-25T05:32:23.819Z,25.90
2022-11-25T05:34:50.902Z,26.47
2022-11-25T05:37:23.951Z,26.37
2022-11-25T05:39:51.600Z,26.17
2022-11-25T05:42:18.777Z,24.93
2022-11-25T05:44:45.745Z,25.77
2022-11-25T05:47:12.735Z,25.93
2022-11-25T05:49:39.837Z,27.87
2022-11-25T05:52:09.057Z,27.10
2022-11-25T05:54:36.910Z,26.20
2022-11-25T05:57:04.074Z,25.57
2022-11-25T05:59:31.156Z,24.70
2022-11-25T06:01:58.130Z,26.20
2022-11-25T06:04:25.086Z,24.67
2022-11-25T06:06:52.125Z,26.00
2022-11-25T06:09:19.083Z,27.87
2022-11-25T06:11:46.013Z,27.23
2022-11-25T06:14:13.044Z,28.00
2022-11-25T06:16:41.430Z,26.63
2022-11-25T06:19:08.459Z,28.53
2022-11-25T06:21:36.457Z,26.40
2022-11-25T06:24:03.551Z,27.67
2022-11-25T06:26:30.501Z,28.33
2022-11-25T06:28:57.490Z,26.47
2022-11-25T06:31:26.488Z,27.20
2022-11-25T06:33:54.411Z,26.37
2022-11-25T06:36:22.424Z,23.63
2022-11-25T06:38:53.053Z,22.67
2022-11-25T06:41:21.661Z,25.77
2022-11-25T06:43:48.698Z,24.03
2022-11-25T06:46:24.450Z,22.93
2022-11-25T06:48:53.049Z,24.90
2022-11-25T06:51:20.229Z,22.53
2022-11-25T06:53:47.269Z,21.43
2022-11-25T06:56:26.646Z,23.53
2022-11-25T06:58:54.578Z,22.87
2022-11-25T07:01:28.618Z,24.80
2022-11-25T07:04:00.883Z,22.90
2022-11-25T07:06:27.975Z,22.50
2022-11-25T07:08:55.416Z,21.37
2022-11-25T07:11:23.453Z,22.93
2022-11-25T07:14:03.260Z,23.07
2022-11-25T07:16:32.512Z,23.53
2022-11-25T07:19:02.098Z,24.63
2022-11-25T07:21:31.152Z,23.83
2022-11-25T07:24:01.100Z,24.80
2022-11-25T07:26:32.543Z,24.47
2022-11-25T07:29:06.369Z,24.37
2022-11-25T07:31:43.849Z,22.40
2022-11-25T07:34:21.125Z,24.43
2022-11-25T07:36:50.182Z,23.20
2022-11-25T07:39:21.869Z,25.00
2022-11-25T07:41:51.976Z,26.73
2022-11-25T07:44:19.856Z,24.43
2022-11-25T07:46:49.375Z,25.17
2022-11-25T07:49:24.917Z,26.30
2022-11-25T07:51:59.852Z,27.10
2022-11-25T07:54:27.142Z,30.30
2022-11-25T07:56:54.178Z,28.80
2022-11-25T07:59:23.565Z,31.77
2022-11-25T08:01:53.203Z,29.10
2022-11-25T08:04:21.299Z,29.10
2022-11-25T08:06:51.089Z,30.07
2022-11-25T08:09:21.419Z,27.73
2022-11-25T08:11:49.750Z,28.90
2022-11-25T08:14:17.800Z,29.90
2022-11-25T08:16:45.393Z,28.23
2022-11-25T08:19:16.080Z,28.13
2022-11-25T08:21:43.550Z,28.93
2022-11-25T08:24:17.240Z,28.40
2022-11-25T08:26:45.131Z,28.57
2022-11-25T08:29:15.777Z,28.50
2022-11-25T08:31:43.434Z,29.20
2022-11-25T08:34:20.217Z,27.57
2022-11-25T08:36:48.813Z,28.53
2022-11-25T08:39:51.297Z,27.40
2022-11-25T08:42:07.632Z,26.37
2022-11-25T08:44:35.809Z,28.63
2022-11-25T08:47:02.840Z,27.67
2022-11-25T08:49:34.787Z,25.33
2022-11-25T08:52:05.969Z,30.00
2022-11-25T08:54:32.915Z,28.93
2022-11-25T08:57:00.794Z,28.17
2022-11-25T08:59:27.748Z,29.23
2022-11-25T09:01:55.653Z,29.47
2022-11-25T09:04:22.688Z,28.20
2022-11-25T09:06:49.768Z,29.80
2022-11-25T09:09:16.753Z,27.90
2022-11-25T09:11:43.863Z,31.17
2022-11-25T09:14:10.987Z,28.80
2022-11-25T09:16:38.063Z,27.20
2022-11-25T09:19:06.633Z,30.60
2022-11-25T09:21:33.571Z,28.43
2022-11-25T09:24:00.497Z,30.63
2022-11-25T09:26:31.858Z,27.27
2022-11-25T09:28:58.874Z,30.87
2022-11-25T09:31:25.845Z,30.23
2022-11-25T09:33:53.206Z,31.40
2022-11-25T09:36:21.187Z,29.77
2022-11-25T09:38:48.440Z,30.97
2022-11-25T09:41:54.102Z,31.27
2022-11-25T09:45:06.854Z,30.20
2022-11-25T09:48:10.377Z,30.97
2022-11-25T09:51:07.840Z,29.80
2022-11-25T09:53:34.718Z,30.33
2022-11-25T09:56:27.771Z,34.50
2022-11-25T09:59:29.689Z,31.90
2022-11-25T10:02:11.470Z,29.70
2022-11-25T10:04:47.818Z,29.93
2022-11-25T10:07:25.392Z,28.90
2022-11-25T10:09:53.150Z,29.43
2022-11-25T10:12:28.043Z,29.03
2022-11-25T10:15:12.812Z,28.40
2022-11-25T10:17:53.350Z,28.37
2022-11-25T10:20:33.853Z,28.37
2022-11-25T10:23:12.344Z,28.77
2022-11-25T10:25:48.407Z,27.40
2022-11-25T10:28:23.602Z,29.20
2022-11-25T10:31:22.393Z,29.47
2022-11-25T10:33:52.946Z,29.47
2022-11-25T10:36:36.915Z,27.73
2022-11-25T10:39:29.975Z,29.63
2022-11-25T10:41:59.665Z,30.20
2022-11-25T10:44:32.804Z,29.93
2022-11-25T10:47:47.448Z,29.40
2022-11-25T10:50:17.521Z,30.13
2022-11-25T10:52:58.090Z,30.83
2022-11-25T10:55:29.869Z,31.30
2022-11-25T10:57:57.809Z,29.43
2022-11-25T11:00:36.204Z,31.20
2022-11-25T11:03:26.560Z,30.93
2022-11-25T11:05:54.709Z,30.97
2022-11-25T11:08:38.529Z,31.60
2022-11-25T11:11:19.368Z,31.70
2022-11-25T11:13:48.405Z,30.13
2022-11-25T11:16:28.550Z,30.53
2022-11-25T11:18:57.276Z,34.17
2022-11-25T11:21:33.219Z,32.23
2022-11-25T11:24:01.837Z,32.10
2022-11-25T11:26:36.122Z,32.23
2022-11-25T11:29:17.191Z,32.50
2022-11-25T11:32:25.192Z,31.83
2022-11-25T11:35:17.763Z,32.90
2022-11-25T11:37:47.746Z,32.67
2022-11-25T11:40:46.492Z,32.23
2022-11-25T11:43:39.734Z,31.47
2022-11-25T11:46:32.722Z,31.37
2022-11-25T11:49:05.630Z,33.60
2022-11-25T11:51:55.900Z,34.57
2022-11-25T11:54:36.781Z,31.07
2022-11-25T11:57:21.369Z,32.37
2022-11-25T11:59:56.144Z,34.10
2022-11-25T12:02:54.592Z,32.70
2022-11-25T12:05:27.438Z,30.13
2022-11-25T12:08:16.168Z,30.60
2022-11-25T12:10:54.495Z,31.47
2022-11-25T12:13:48.398Z,28.20
2022-11-25T12:16:21.030Z,29.63
2022-11-25T12:18:55.173Z,28.53
2022-11-25T12:21:44.127Z,29.43
2022-11-25T12:24:29.560Z,28.33
2022-11-25T12:27:27.593Z,26.83
2022-11-25T12:30:22.057Z,28.47
2022-11-25T12:33:11.021Z,26.07
2022-11-25T12:35:53.473Z,25.70
2022-11-25T12:38:47.372Z,27.77
2022-11-25T12:41:28.394Z,28.00
2022-11-25T12:44:46.155Z,27.00
2022-11-25T12:47:13.143Z,26.43
2022-11-25T12:49:46.069Z,26.23
2022-11-25T12:52:38.091Z,28.17
2022-11-25T12:55:18.732Z,29.07
2022-11-25T12:58:19.723Z,27.57
2022-11-25T13:01:16.692Z,27.83
2022-11-25T13:04:11.471Z,27.90
2022-11-25T13:07:17.486Z,27.00
2022-11-25T13:10:15.254Z,26.77
2022-11-25T13:13:00.261Z,27.17
2022-11-25T13:15:48.420Z,29.23
2022-11-25T13:18:23.766Z,27.30
2022-11-25T13:20:56.263Z,29.17
2022-11-25T13:23:41.404Z,29.67
2022-11-25T13:26:36.736Z,29.33
2022-11-25T13:29:26.710Z,30.13
2022-11-25T13:32:25.151Z,29.67
2022-11-25T13:35:26.723Z,29.27
2022-11-25T13:37:53.652Z,28.93
2022-11-25T13:40:23.460Z,31.33
2022-11-25T13:42:52.269Z,30.23
2022-11-25T13:45:39.261Z,32.00
2022-11-25T13:48:37.987Z,31.20
2022-11-25T13:51:22.061Z,32.20
2022-11-25T13:54:01.347Z,30.57
2022-11-25T13:56:36.046Z,29.27
2022-11-25T13:59:11.738Z,31.70
2022-11-25T14:01:46.748Z,29.97
2022-11-25T14:04:15.693Z,31.43
2022-11-25T14:07:20.676Z,39.37
2022-11-25T14:10:15.279Z,32.43
2022-11-25T14:13:14.538Z,31.77
2022-11-25T14:16:12.662Z,32.63
2022-11-25T14:19:43.312Z,30.67
2022-11-25T14:22:20.603Z,32.40
2022-11-25T14:24:55.004Z,29.67
2022-11-25T14:27:28.918Z,29.33
2022-11-25T14:30:05.216Z,30.37
2022-11-25T14:32:43.724Z,30.07
2022-11-25T14:35:41.674Z,31.13
2022-11-25T14:38:45.177Z,30.27
2022-11-25T14:41:53.357Z,28.50
2022-11-25T14:44:29.859Z,30.37
2022-11-25T14:47:03.216Z,29.60
2022-11-25T14:50:32.925Z,27.57
2022-11-25T14:52:50.764Z,29.10
2022-11-25T14:55:31.474Z,29.53
2022-11-25T14:57:58.787Z,30.23
2022-11-25T15:00:25.941Z,29.83
2022-11-25T15:03:01.874Z,29.63
2022-11-25T15:05:38.466Z,31.43
2022-11-25T15:08:08.111Z,30.37
2022-11-25T15:11:01.179Z,27.27
2022-11-25T15:13:43.030Z,28.37
2022-11-25T15:16:23.606Z,27.43
2022-11-25T15:18:58.528Z,29.10
2022-11-25T15:22:07.084Z,29.00
2022-11-25T15:24:30.648Z,28.10
2022-11-25T15:27:01.189Z,31.00
2022-11-25T15:29:31.418Z,29.90
2022-11-25T15:32:00.243Z,29.60
2022-11-25T15:34:29.748Z,28.57
2022-11-25T15:37:00.823Z,31.10
2022-11-25T15:39:28.101Z,28.60
2022-11-25T15:42:07.488Z,30.33
2022-11-25T15:44:46.515Z,30.37
2022-11-25T15:47:23.115Z,29.17
2022-11-25T15:50:04.594Z,28.77
2022-11-25T15:52:40.789Z,28.27
2022-11-25T15:55:38.666Z,29.20
2022-11-25T15:58:21.524Z,28.57
2022-11-25T16:01:15.977Z,28.90
2022-11-25T16:03:44.848Z,28.37
2022-11-25T16:06:24.893Z,28.63
2022-11-25T16:08:55.644Z,29.53
2022-11-25T16:11:25.696Z,28.50
2022-11-25T16:13:53.555Z,31.37
2022-11-25T16:16:30.059Z,29.20
2022-11-25T16:19:06.709Z,28.50
2022-11-25T16:21:36.672Z,29.60
2022-11-25T16:24:06.506Z,28.27
2022-11-25T16:26:48.123Z,28.33
2022-11-25T16:29:26.280Z,28.83
2022-11-25T16:31:53.331Z,29.70
2022-11-25T16:34:21.933Z,29.80
2022-11-25T16:36:48.857Z,30.00
2022-11-25T16:39:16.036Z,31.47
2022-11-25T16:41:46.285Z,30.40
2022-11-25T16:44:19.515Z,31.17
2022-11-25T16:46:46.605Z,30.97
2022-11-25T16:49:16.465Z,35.27
2022-11-25T16:51:43.931Z,33.63
2022-11-25T16:54:12.413Z,31.67
2022-11-25T16:56:43.760Z,31.40
2022-11-25T16:59:19.437Z,32.80
2022-11-25T17:01:47.315Z,32.47
2022-11-25T17:04:15.437Z,33.73
2022-11-25T17:06:50.566Z,33.23
2022-11-25T17:09:32.435Z,33.30
2022-11-25T17:11:59.399Z,30.17
2022-11-25T17:14:34.745Z,32.63
2022-11-25T17:17:03.537Z,32.03
2022-11-25T17:19:31.219Z,31.60
2022-11-25T17:21:58.428Z,33.07
2022-11-25T17:24:25.766Z,34.00
2022-11-25T17:27:01.225Z,33.77
2022-11-25T17:29:42.723Z,36.13
2022-11-25T17:32:13.740Z,35.70
2022-11-25T17:34:40.881Z,33.43
2022-11-25T17:37:18.080Z,35.27
2022-11-25T17:39:45.153Z,33.53
2022-11-25T17:42:15.946Z,35.63
2022-11-25T17:44:49.866Z,34.93
2022-11-25T17:47:19.960Z,34.20
2022-11-25T17:49:46.982Z,36.97
2022-11-25T17:52:13.927Z,37.27
2022-11-25T17:54:41.430Z,35.07
2022-11-25T17:57:21.049Z,35.10
2022-11-25T17:59:48.411Z,35.67
2022-11-25T18:02:21.639Z,33.10
2022-11-25T18:04:49.814Z,34.87
2022-11-25T18:07:17.975Z,35.07
2022-11-25T18:09:45.517Z,36.07
2022-11-25T18:12:27.411Z,36.40
2022-11-25T18:14:55.824Z,34.70
2022-11-25T18:17:23.143Z,35.23
2022-11-25T18:19:54.916Z,35.40
2022-11-25T18:22:24.037Z,34.63
2022-11-25T18:24:52.980Z,33.97
2022-11-25T18:27:28.171Z,36.07
2022-11-25T18:29:56.554Z,36.37
2022-11-25T18:32:24.875Z,34.07
2022-11-25T18:34:52.032Z,36.10
2022-11-25T18:37:19.054Z,37.13
2022-11-25T18:39:46.718Z,35.47
2022-11-25T18:42:27.329Z,35.80
2022-11-25T18:44:56.215Z,35.60
2022-11-25T18:47:23.306Z,34.23
2022-11-25T18:49:55.416Z,36.03
2022-11-25T18:52:24.768Z,35.67
2022-11-25T18:54:51.926Z,36.43
2022-11-25T18:57:19.035Z,33.73
2022-11-25T18:59:48.020Z,36.00
2022-11-25T19:02:23.285Z,35.20
2022-11-25T19:04:50.309Z,36.43
2022-11-25T19:07:17.502Z,38.20
2022-11-25T19:09:44.636Z,35.10
2022-11-25T19:12:20.883Z,35.23
2022-11-25T19:14:50.251Z,37.77
2022-11-25T19:17:24.295Z,37.50
2022-11-25T19:19:51.311Z,37.13
2022-11-25T19:22:18.958Z,37.53
2022-11-25T19:24:46.263Z,39.53
2022-11-25T19:27:35.682Z,39.73
2022-11-25T19:30:03.191Z,37.53
2022-11-25T19:32:32.558Z,39.07
2022-11-25T19:35:05.485Z,40.43
2022-11-25T19:37:32.598Z,37.70
2022-11-25T19:39:59.845Z,40.13
2022-11-25T19:42:28.408Z,39.77
2022-11-25T19:44:55.405Z,37.57
2022-11-25T19:47:26.036Z,40.07
2022-11-25T19:49:59.037Z,37.93
2022-11-25T19:52:38.088Z,36.87
2022-11-25T19:55:27.282Z,40.20
2022-11-25T19:57:55.124Z,40.77
2022-11-25T20:00:25.592Z,39.23
2022-11-25T20:02:55.166Z,42.30
2022-11-25T20:05:35.062Z,40.27
2022-11-25T20:08:02.248Z,41.20
2022-11-25T20:10:32.148Z,43.93
2022-11-25T20:12:59.405Z,45.67
2022-11-25T20:15:27.368Z,42.50
2022-11-25T20:17:58.642Z,43.10
2022-11-25T20:20:33.911Z,42.40
2022-11-25T20:23:20.773Z,44.93
2022-11-25T20:25:49.500Z,43.07
2022-11-25T20:28:26.910Z,43.57
2022-11-25T20:30:54.628Z,40.00
2022-11-25T20:33:24.680Z,42.97
2022-11-25T20:36:03.039Z,44.17
2022-11-25T20:38:32.620Z,42.77
2022-11-25T20:41:01.108Z,44.33
2022-11-25T20:43:41.338Z,43.33
2022-11-25T20:46:22.938Z,43.63
2022-11-25T20:48:55.429Z,45.10
2022-11-25T20:51:24.308Z,43.13
2022-11-25T20:53:58.051Z,46.13
2022-11-25T20:56:27.831Z,43.33
2022-11-25T20:58:54.934Z,45.03
2022-11-25T21:01:22.165Z,45.87
2022-11-25T21:03:50.260Z,44.80
2022-11-25T21:06:25.716Z,45.30
2022-11-25T21:08:54.898Z,45.87
2022-11-25T21:11:23.172Z,43.53
2022-11-25T21:13:51.925Z,42.17
2022-11-25T21:16:19.055Z,43.57
2022-11-25T21:18:46.137Z,44.93
2022-11-25T21:21:33.643Z,45.60
2022-11-25T21:24:08.565Z,43.13
2022-11-25T21:26:35.563Z,45.77
2022-11-25T21:29:02.489Z,47.43
2022-11-25T21:31:30.255Z,43.27
2022-11-25T21:34:01.175Z,45.97
2022-11-25T21:36:30.939Z,43.33
2022-11-25T21:39:12.660Z,44.33
2022-11-25T21:41:39.813Z,46.87
2022-11-25T21:44:07.699Z,48.50
2022-11-25T21:46:34.810Z,47.27
2022-11-25T21:49:01.819Z,44.27
2022-11-25T21:51:28.768Z,44.03
2022-11-25T21:53:55.709Z,45.00
2022-11-25T21:56:34.019Z,44.73
2022-11-25T21:59:03.916Z,44.07
2022-11-25T22:01:31.157Z,46.27
2022-11-25T22:03:58.443Z,42.47
2022-11-25T22:06:33.542Z,42.10
2022-11-25T22:09:00.552Z,44.17
2022-11-25T22:11:43.930Z,42.70
2022-11-25T22:14:39.965Z,43.90
2022-11-25T22:17:14.559Z,41.63
2022-11-25T22:19:41.524Z,42.00
2022-11-25T22:22:16.437Z,44.53
2022-11-25T22:24:43.892Z,42.80
2022-11-25T22:27:25.083Z,44.23
2022-11-25T22:29:53.060Z,42.57
2022-11-25T22:32:20.007Z,44.33
2022-11-25T22:34:48.023Z,44.87
2022-11-25T22:37:23.711Z,43.83
2022-11-25T22:39:50.893Z,44.07
2022-11-25T22:42:31.580Z,48.27
2022-11-25T22:45:00.921Z,42.97
2022-11-25T22:47:36.158Z,45.83
2022-11-25T22:50:11.932Z,44.67
2022-11-25T22:52:38.889Z,47.13
2022-11-25T22:55:14.866Z,47.30
2022-11-25T22:57:41.877Z,46.90
2022-11-25T23:00:18.211Z,50.50
2022-11-25T23:02:45.457Z,48.43
2022-11-25T23:05:33.047Z,49.07
2022-11-25T23:08:02.546Z,49.97
2022-11-25T23:10:31.551Z,48.23
2022-11-25T23:12:58.538Z,47.83
2022-11-25T23:15:25.852Z,48.87
2022-11-25T23:18:01.902Z,51.07
2022-11-25T23:20:36.388Z,50.30
2022-11-25T23:23:27.073Z,50.23
2022-11-25T23:25:55.815Z,49.77
2022-11-25T23:28:22.781Z,49.83
2022-11-25T23:30:58.465Z,48.77
2022-11-25T23:33:37.005Z,48.60
2022-11-25T23:36:28.775Z,49.60
2022-11-25T23:39:01.723Z,49.83
2022-11-25T23:41:32.439Z,48.07
2022-11-25T23:44:31.662Z,47.87
2022-11-25T23:47:04.761Z,46.03
2022-11-25T23:49:40.335Z,48.53
2022-11-25T23:52:14.148Z,48.83
2022-11-25T23:54:47.669Z,48.83
2022-11-25T23:57:31.621Z,51.87
2022-11-25T23:59:58.969Z,48.87
